Time;durP1;ratioP1;P1;durP2;ratioP2;P2;SDS_P1;SDS_P2;PMS_P1;PMS_P2;Temp;Humidity;BMP_temperature;BMP_pressure;BME280_temperature;BME280_humidity;BME280_pressure;Samples;Min_cycle;Max_cycle;Signal;HPM_P1;HPM_P2
2024/02/28 00:01:53;;;;;;;41.20;21.73;;;6.10;99.90;;;;;;7606291;19;20431;-74
2024/02/28 00:04:25;;;;;;;36.40;20.77;;;6.10;99.90;;;;;;7606672;19;20286;-75
2024/02/28 00:06:58;;;;;;;44.00;23.27;;;6.10;99.90;;;;;;7593176;19;20010;-73
2024/02/28 00:09:30;;;;;;;38.63;21.35;;;6.10;99.90;;;;;;7598156;19;20030;-74
2024/02/28 00:12:03;;;;;;;37.67;21.75;;;6.20;99.90;;;;;;7582128;19;20054;-75
2024/02/28 00:14:35;;;;;;;41.78;22.92;;;6.20;99.90;;;;;;7599622;19;20015;-73
2024/02/28 00:17:07;;;;;;;40.90;23.27;;;6.20;99.90;;;;;;7595202;19;20014;-74
2024/02/28 00:19:40;;;;;;;38.60;22.15;;;6.20;99.90;;;;;;7603348;19;20034;-75
2024/02/28 00:22:12;;;;;;;41.83;22.30;;;6.10;99.90;;;;;;7600350;19;20050;-72
2024/02/28 00:24:45;;;;;;;39.88;22.20;;;6.10;99.90;;;;;;7589806;19;20146;-74
2024/02/28 00:27:17;;;;;;;40.22;22.58;;;6.20;99.90;;;;;;7597132;19;20514;-74
2024/02/28 00:29:49;;;;;;;41.80;22.20;;;6.20;99.90;;;;;;7607225;19;20507;-74
2024/02/28 00:32:22;;;;;;;40.40;22.02;;;6.20;99.90;;;;;;7601770;19;20062;-74
2024/02/28 00:34:54;;;;;;;39.70;22.60;;;6.20;99.90;;;;;;7600966;19;20741;-74
2024/02/28 00:37:26;;;;;;;44.50;23.85;;;6.30;99.90;;;;;;7604048;19;20138;-72
2024/02/28 00:39:59;;;;;;;45.58;23.33;;;6.30;99.90;;;;;;7598048;19;20059;-73
2024/02/28 00:42:31;;;;;;;43.80;24.13;;;6.30;99.90;;;;;;7599193;19;20019;-72
2024/02/28 00:45:04;;;;;;;40.53;23.45;;;6.30;99.90;;;;;;7600123;19;20025;-73
2024/02/28 00:47:37;;;;;;;45.23;25.13;;;6.20;99.90;;;;;;7605957;19;20019;-71
2024/02/28 00:50:11;;;;;;;41.85;24.65;;;6.20;99.90;;;;;;7585870;19;20022;-72
2024/02/28 00:52:43;;;;;;;46.30;24.25;;;6.20;99.90;;;;;;7612602;19;20030;-72
2024/02/28 00:55:15;;;;;;;44.85;24.15;;;6.20;99.90;;;;;;7606992;19;20043;-71
2024/02/28 00:57:48;;;;;;;48.28;25.60;;;6.30;99.90;;;;;;7611991;19;20109;-75
2024/02/28 01:00:20;;;;;;;48.58;26.02;;;6.40;99.90;;;;;;7606969;19;20014;-72
2024/02/28 01:02:53;;;;;;;45.42;24.83;;;6.40;99.90;;;;;;7613721;19;20018;-74
2024/02/28 01:05:25;;;;;;;42.53;24.98;;;6.40;99.90;;;;;;7601894;19;20018;-75
2024/02/28 01:07:58;;;;;;;46.33;25.52;;;6.30;99.90;;;;;;7612312;19;20443;-73
2024/02/28 01:10:30;;;;;;;44.40;24.85;;;6.30;99.90;;;;;;7611056;19;20142;-72
2024/02/28 01:13:03;;;;;;;43.08;24.30;;;6.40;99.90;;;;;;7606864;19;20018;-73
2024/02/28 01:15:35;;;;;;;45.00;25.73;;;6.50;99.90;;;;;;7613572;19;20021;-73
2024/02/28 01:18:08;;;;;;;47.22;25.83;;;6.50;99.90;;;;;;7594785;19;20029;-75
2024/02/28 01:20:41;;;;;;;46.42;25.33;;;6.50;99.90;;;;;;7607610;19;20014;-74
2024/02/28 01:23:14;;;;;;;45.95;26.05;;;6.50;99.90;;;;;;7587235;19;20574;-75
2024/02/28 01:25:46;;;;;;;50.65;26.35;;;6.50;99.90;;;;;;7590451;19;20480;-75
2024/02/28 01:28:18;;;;;;;44.85;26.08;;;6.50;99.90;;;;;;7595292;19;20018;-74
2024/02/28 01:30:51;;;;;;;47.05;25.27;;;6.40;99.90;;;;;;7603263;19;20018;-74
2024/02/28 01:33:23;;;;;;;45.25;25.33;;;6.40;99.90;;;;;;7579867;19;21502;-75
2024/02/28 01:35:55;;;;;;;45.83;24.48;;;6.40;99.90;;;;;;7609182;19;20117;-74
2024/02/28 01:38:30;;;;;;;44.03;26.08;;;6.40;99.90;;;;;;7606775;19;20018;-72
2024/02/28 01:41:05;;;;;;;45.97;25.90;;;6.30;99.90;;;;;;7605892;19;20057;-74
2024/02/28 01:43:38;;;;;;;47.05;24.25;;;6.30;99.90;;;;;;7606373;19;20052;-74
2024/02/28 01:46:29;;;;;;;47.95;26.27;;;6.30;99.90;;;;;;7602547;19;20082;-74
2024/02/28 01:49:02;;;;;;;49.40;26.13;;;6.40;99.90;;;;;;7609243;19;20475;-72
2024/02/28 01:51:36;;;;;;;49.55;25.75;;;6.40;99.90;;;;;;7610637;19;20480;-74
2024/02/28 01:54:08;;;;;;;45.05;25.13;;;6.30;99.90;;;;;;7601735;19;20015;-73
2024/02/28 01:56:41;;;;;;;49.47;25.98;;;6.30;99.90;;;;;;7612750;19;20373;-75
2024/02/28 01:59:15;;;;;;;52.40;26.75;;;6.20;99.90;;;;;;7601695;19;20022;-74
2024/02/28 02:01:47;;;;;;;47.63;26.92;;;6.30;99.90;;;;;;7608133;19;20358;-72
2024/02/28 02:04:19;;;;;;;49.20;26.17;;;6.30;99.90;;;;;;7596196;19;20021;-75
2024/02/28 02:06:54;;;;;;;54.35;27.73;;;6.30;99.90;;;;;;7609953;19;20570;-72
2024/02/28 02:09:26;;;;;;;62.25;31.33;;;6.30;99.90;;;;;;7603063;19;20044;-74
2024/02/28 02:11:59;;;;;;;68.97;32.05;;;6.30;99.90;;;;;;7611323;19;20046;-72
2024/02/28 02:14:31;;;;;;;68.43;33.70;;;6.30;99.90;;;;;;7606415;19;20026;-71
2024/02/28 02:17:04;;;;;;;56.90;30.70;;;6.30;99.90;;;;;;7608792;19;20014;-73
2024/02/28 02:19:37;;;;;;;69.75;39.72;;;6.30;99.90;;;;;;7608084;19;21071;-74
2024/02/28 02:22:12;;;;;;;61.83;36.70;;;6.30;99.90;;;;;;7604248;19;20048;-76
2024/02/28 02:24:44;;;;;;;63.25;34.75;;;6.40;99.90;;;;;;7604727;19;20527;-74
2024/02/28 02:27:16;;;;;;;57.80;34.47;;;6.40;99.90;;;;;;7599975;19;20029;-74
2024/02/28 02:29:49;;;;;;;58.90;31.65;;;6.40;99.90;;;;;;7601550;19;20056;-73
2024/02/28 02:32:21;;;;;;;54.88;30.85;;;6.40;99.90;;;;;;7592239;19;20131;-73
2024/02/28 02:34:54;;;;;;;55.28;29.67;;;6.40;99.90;;;;;;7600127;19;20027;-71
2024/02/28 02:37:26;;;;;;;54.88;29.27;;;6.40;99.90;;;;;;7598949;19;22162;-75
2024/02/28 02:39:58;;;;;;;52.70;28.92;;;6.30;99.90;;;;;;7601503;19;20028;-72
2024/02/28 02:42:31;;;;;;;52.03;28.67;;;6.30;99.90;;;;;;7599690;19;20023;-74
2024/02/28 02:45:04;;;;;;;51.83;27.48;;;6.40;99.90;;;;;;7592724;19;20014;-73
2024/02/28 02:47:36;;;;;;;57.45;28.08;;;6.40;99.90;;;;;;7591220;19;20090;-75
2024/02/28 02:50:09;;;;;;;51.63;29.05;;;6.40;99.90;;;;;;7597894;19;20064;-72
2024/02/28 02:52:42;;;;;;;53.43;29.13;;;6.40;99.90;;;;;;7600247;19;20018;-72
2024/02/28 02:55:15;;;;;;;50.97;28.48;;;6.40;99.90;;;;;;7592752;19;21449;-72
2024/02/28 02:57:47;;;;;;;50.55;27.88;;;6.30;99.90;;;;;;7595049;19;21231;-74
2024/02/28 03:00:20;;;;;;;53.85;29.05;;;6.30;99.90;;;;;;7570666;19;20022;-72
2024/02/28 03:02:52;;;;;;;55.47;30.00;;;6.40;99.90;;;;;;7608092;19;20025;-72
2024/02/28 03:05:25;;;;;;;54.85;30.45;;;6.40;99.90;;;;;;7597263;19;20479;-73
2024/02/28 03:07:57;;;;;;;56.75;30.50;;;6.30;99.90;;;;;;7602128;19;20047;-71
2024/02/28 03:10:29;;;;;;;58.33;29.17;;;6.30;99.90;;;;;;7593720;19;20899;-74
2024/02/28 03:13:02;;;;;;;54.97;29.90;;;6.30;99.90;;;;;;7597961;19;20049;-74
2024/02/28 03:15:35;;;;;;;60.03;30.97;;;6.40;99.90;;;;;;7602662;19;20022;-72
2024/02/28 03:18:07;;;;;;;50.70;27.65;;;6.40;99.90;;;;;;7608242;19;20006;-74
2024/02/28 03:20:40;;;;;;;53.05;29.02;;;6.40;99.90;;;;;;7607989;19;20020;-74
2024/02/28 03:23:12;;;;;;;57.83;30.40;;;6.40;99.90;;;;;;7589175;19;20014;-74
2024/02/28 03:25:45;;;;;;;58.67;30.88;;;6.40;99.90;;;;;;7599338;19;20023;-75
2024/02/28 03:28:17;;;;;;;55.72;29.08;;;6.40;99.90;;;;;;7575671;19;20364;-73
2024/02/28 03:30:49;;;;;;;56.35;29.90;;;6.40;99.90;;;;;;7570672;19;20022;-74
2024/02/28 03:33:22;;;;;;;60.42;31.10;;;6.40;99.90;;;;;;7584000;19;20428;-75
2024/02/28 03:35:54;;;;;;;51.07;29.43;;;6.40;99.90;;;;;;7591738;19;20014;-74
2024/02/28 03:38:26;;;;;;;56.90;31.58;;;6.50;99.90;;;;;;7590741;19;20014;-74
2024/02/28 03:40:59;;;;;;;67.25;33.50;;;6.50;99.90;;;;;;7586664;19;20014;-73
2024/02/28 03:43:31;;;;;;;58.53;32.42;;;6.50;99.90;;;;;;7590202;19;22003;-72
2024/02/28 03:46:03;;;;;;;59.50;32.42;;;6.50;99.90;;;;;;7590402;19;20064;-72
2024/02/28 03:48:36;;;;;;;65.13;34.47;;;6.50;99.90;;;;;;7598125;19;20119;-72
2024/02/28 03:51:09;;;;;;;63.95;30.83;;;6.60;99.90;;;;;;7592498;19;20015;-72
2024/02/28 03:53:41;;;;;;;65.60;32.92;;;6.60;99.90;;;;;;7587639;19;20015;-73
2024/02/28 03:56:21;;;;;;;66.32;33.90;;;6.60;99.90;;;;;;7577094;19;20534;-73
2024/02/28 03:58:56;;;;;;;62.77;33.83;;;6.60;99.90;;;;;;7597764;19;20896;-72
2024/02/28 04:01:28;;;;;;;66.10;34.00;;;6.50;99.90;;;;;;7601989;19;20047;-78
2024/02/28 04:04:02;;;;;;;65.95;35.78;;;6.50;99.90;;;;;;7592309;19;20363;-74
2024/02/28 04:06:34;;;;;;;72.15;36.30;;;6.50;99.90;;;;;;7601491;19;20010;-74
2024/02/28 04:09:07;;;;;;;68.93;35.88;;;6.50;99.90;;;;;;7598951;19;20022;-73
2024/02/28 04:11:39;;;;;;;70.37;35.20;;;6.40;99.90;;;;;;7599215;19;20007;-74
2024/02/28 04:14:11;;;;;;;66.15;35.78;;;6.40;99.90;;;;;;7601944;19;20630;-75
2024/02/28 04:16:44;;;;;;;67.03;33.60;;;6.40;99.90;;;;;;7596340;19;20385;-74
2024/02/28 04:19:17;;;;;;;75.18;36.95;;;6.40;99.90;;;;;;7586724;19;20064;-75
2024/02/28 04:21:49;;;;;;;72.43;36.27;;;6.40;99.90;;;;;;7591056;19;21331;-71
2024/02/28 04:24:21;;;;;;;79.57;40.28;;;6.40;99.90;;;;;;7592275;19;20019;-72
2024/02/28 04:26:54;;;;;;;71.35;36.33;;;6.40;99.90;;;;;;7610489;19;20017;-73
2024/02/28 04:29:26;;;;;;;70.22;35.65;;;6.30;99.90;;;;;;7600146;19;20106;-73
2024/02/28 04:31:58;;;;;;;79.20;37.95;;;6.30;99.90;;;;;;7605666;19;20054;-73
2024/02/28 04:34:30;;;;;;;80.78;39.95;;;6.30;99.90;;;;;;7605688;19;20653;-72
2024/02/28 04:37:04;;;;;;;75.95;37.30;;;6.30;99.90;;;;;;7611916;19;20021;-72
2024/02/28 04:39:36;;;;;;;76.38;35.92;;;6.30;99.90;;;;;;7588409;19;22364;-72
2024/02/28 04:42:08;;;;;;;80.45;38.88;;;6.30;99.90;;;;;;7605099;19;20019;-72
2024/02/28 04:44:40;;;;;;;79.00;38.45;;;6.30;99.90;;;;;;7604602;19;20650;-73
2024/02/28 04:47:13;;;;;;;77.25;38.08;;;6.30;99.90;;;;;;7613944;19;20058;-71
2024/02/28 04:49:46;;;;;;;73.10;35.83;;;6.20;99.90;;;;;;7588682;19;20695;-72
2024/02/28 04:52:19;;;;;;;71.00;36.88;;;6.20;99.90;;;;;;7590261;19;20047;-72
2024/02/28 04:54:55;;;;;;;69.15;35.78;;;6.10;99.90;;;;;;7606716;19;20015;-72
2024/02/28 04:57:27;;;;;;;72.50;35.35;;;6.10;99.90;;;;;;7587551;19;20413;-72
2024/02/28 05:00:00;;;;;;;72.27;36.90;;;6.10;99.90;;;;;;7603790;19;20018;-72
2024/02/28 05:02:33;;;;;;;72.15;36.75;;;6.10;99.90;;;;;;7594360;19;20551;-72
2024/02/28 05:05:06;;;;;;;79.32;38.20;;;6.10;99.90;;;;;;7598243;19;20021;-73
2024/02/28 05:07:38;;;;;;;71.28;35.72;;;6.10;99.90;;;;;;7587031;19;21286;-73
2024/02/28 05:10:11;;;;;;;69.82;36.05;;;6.00;99.90;;;;;;7581444;19;20014;-72
2024/02/28 05:12:43;;;;;;;66.97;35.78;;;6.10;99.90;;;;;;7589469;19;20372;-73
2024/02/28 05:15:15;;;;;;;71.57;35.03;;;6.10;99.90;;;;;;7575605;19;20010;-73
2024/02/28 05:17:51;;;;;;;74.75;37.08;;;6.10;99.90;;;;;;7579023;19;20022;-73
2024/02/28 05:20:24;;;;;;;75.75;36.83;;;6.10;99.90;;;;;;7581310;19;20015;-72
2024/02/28 05:22:57;;;;;;;78.75;38.10;;;6.10;99.90;;;;;;7583457;19;20018;-73
2024/02/28 05:25:29;;;;;;;66.57;34.55;;;6.10;99.90;;;;;;7587281;19;20026;-73
2024/02/28 05:28:02;;;;;;;70.55;36.03;;;6.20;99.90;;;;;;7589690;19;20014;-72
2024/02/28 05:30:34;;;;;;;74.82;37.17;;;6.20;99.90;;;;;;7585615;19;20014;-73
2024/02/28 05:33:07;;;;;;;79.43;37.10;;;6.20;99.90;;;;;;7590014;19;20014;-72
2024/02/28 05:35:40;;;;;;;78.47;37.40;;;6.20;99.90;;;;;;7585809;19;20099;-73
2024/02/28 05:38:13;;;;;;;72.00;37.75;;;6.10;99.90;;;;;;7592527;19;20117;-72
2024/02/28 05:40:46;;;;;;;73.93;36.25;;;6.10;99.90;;;;;;7589028;19;20635;-73
2024/02/28 05:43:18;;;;;;;75.40;37.63;;;6.10;99.90;;;;;;7595262;19;20614;-73
2024/02/28 05:45:51;;;;;;;78.25;38.00;;;6.10;99.90;;;;;;7586090;19;20642;-74
2024/02/28 05:48:24;;;;;;;76.38;37.30;;;6.10;99.90;;;;;;7583611;19;21431;-74
2024/02/28 05:50:56;;;;;;;72.25;37.08;;;6.10;99.90;;;;;;7578262;19;20015;-73
2024/02/28 05:53:35;;;;;;;75.93;37.77;;;6.10;99.90;;;;;;7591915;19;20006;-73
2024/02/28 05:56:13;;;;;;;77.35;38.10;;;6.10;99.90;;;;;;7597777;19;20030;-73
2024/02/28 05:58:47;;;;;;;89.20;39.60;;;6.10;99.90;;;;;;7594070;19;20019;-73
2024/02/28 06:01:20;;;;;;;74.50;36.45;;;6.10;99.90;;;;;;7591656;19;20015;-73
2024/02/28 06:03:52;;;;;;;82.47;37.63;;;6.10;99.90;;;;;;7592781;19;20012;-73
2024/02/28 06:06:26;;;;;;;76.07;38.85;;;6.10;99.90;;;;;;7583561;19;20015;-74
2024/02/28 06:08:58;;;;;;;73.70;37.22;;;6.10;99.90;;;;;;7569573;19;20014;-73
2024/02/28 06:11:33;;;;;;;79.47;38.97;;;6.10;99.90;;;;;;7586321;19;20012;-74
2024/02/28 06:14:06;;;;;;;74.47;37.45;;;6.10;99.90;;;;;;7599748;19;20056;-74
2024/02/28 06:16:39;;;;;;;81.10;37.53;;;6.10;99.90;;;;;;7589846;19;20475;-74
2024/02/28 06:19:12;;;;;;;77.40;36.65;;;6.10;99.90;;;;;;7606450;19;20018;-74
2024/02/28 06:21:45;;;;;;;82.17;38.87;;;6.20;99.90;;;;;;7596354;19;20747;-73
2024/02/28 06:24:18;;;;;;;80.68;39.53;;;6.10;99.90;;;;;;7604897;19;20035;-74
2024/02/28 06:26:51;;;;;;;81.95;38.58;;;6.10;99.90;;;;;;7595613;19;20095;-74
2024/02/28 06:29:23;;;;;;;78.15;38.30;;;6.10;99.90;;;;;;7591029;19;20015;-73
2024/02/28 06:31:56;;;;;;;78.55;38.10;;;6.10;99.90;;;;;;7603923;19;20022;-73
2024/02/28 06:34:29;;;;;;;77.65;37.42;;;6.00;99.90;;;;;;7590953;19;20039;-73
2024/02/28 06:37:03;;;;;;;78.75;38.42;;;6.10;99.90;;;;;;7636168;19;20014;-73
2024/02/28 06:39:36;;;;;;;78.18;37.40;;;6.00;99.90;;;;;;7618950;19;20010;-74
2024/02/28 06:42:09;;;;;;;78.47;36.53;;;6.10;99.90;;;;;;7610090;19;20055;-73
2024/02/28 06:44:41;;;;;;;72.22;35.63;;;6.10;99.90;;;;;;7601643;19;20045;-73
2024/02/28 06:47:14;;;;;;;76.10;39.22;;;6.10;99.90;;;;;;7608842;19;20019;-73
2024/02/28 06:49:46;;;;;;;77.28;38.58;;;6.10;99.90;;;;;;7615980;19;20683;-73
2024/02/28 06:52:18;;;;;;;76.20;37.60;;;6.10;99.90;;;;;;7618196;19;20094;-73
2024/02/28 06:54:51;;;;;;;72.82;35.83;;;6.10;99.90;;;;;;7615622;19;20019;-73
2024/02/28 06:57:24;;;;;;;74.40;37.70;;;6.20;99.90;;;;;;7614657;19;20048;-73
2024/02/28 06:59:56;;;;;;;77.32;37.95;;;6.10;99.90;;;;;;7604030;19;20030;-73
2024/02/28 07:02:28;;;;;;;75.90;37.13;;;6.20;99.90;;;;;;7615804;19;20122;-74
2024/02/28 07:05:01;;;;;;;85.07;39.65;;;6.20;99.90;;;;;;7605997;19;20065;-73
2024/02/28 07:07:34;;;;;;;85.93;39.83;;;6.20;99.90;;;;;;7611462;19;20018;-73
2024/02/28 07:10:06;;;;;;;81.40;38.50;;;6.20;99.90;;;;;;7612608;19;20011;-74
2024/02/28 07:12:39;;;;;;;81.95;40.30;;;6.20;99.90;;;;;;7595266;19;20042;-73
2024/02/28 07:15:12;;;;;;;84.18;40.63;;;6.20;99.90;;;;;;7600679;19;20022;-73
2024/02/28 07:17:44;;;;;;;81.75;39.00;;;6.20;99.90;;;;;;7611196;19;20107;-73
2024/02/28 07:20:17;;;;;;;78.30;38.72;;;6.20;99.90;;;;;;7620033;19;20014;-73
2024/02/28 07:22:50;;;;;;;81.10;39.70;;;6.30;99.90;;;;;;7609831;19;20996;-73
2024/02/28 07:25:22;;;;;;;80.30;37.92;;;6.20;99.90;;;;;;7620427;19;20802;-73
2024/02/28 07:27:57;;;;;;;75.30;38.30;;;6.30;99.90;;;;;;7598130;19;20006;-74
2024/02/28 07:30:30;;;;;;;81.78;39.83;;;6.30;99.90;;;;;;7605998;19;20110;-73
2024/02/28 07:33:05;;;;;;;86.40;39.80;;;6.20;99.90;;;;;;7610319;19;20058;-74
2024/02/28 07:35:47;;;;;;;85.10;41.45;;;6.30;99.90;;;;;;7624287;19;20010;-73
2024/02/28 07:38:20;;;;;;;90.97;42.80;;;6.30;99.90;;;;;;7630150;19;20057;-73
2024/02/28 07:40:53;;;;;;;92.90;41.47;;;6.30;99.90;;;;;;7629553;19;20053;-73
2024/02/28 07:43:25;;;;;;;92.82;42.88;;;6.40;99.90;;;;;;7633769;19;20014;-73
2024/02/28 07:45:58;;;;;;;83.95;39.58;;;6.40;99.90;;;;;;7623232;19;20018;-73
2024/02/28 07:48:31;;;;;;;96.60;43.50;;;6.40;99.90;;;;;;7625001;19;20026;-73
2024/02/28 07:51:08;;;;;;;92.93;41.33;;;6.40;99.90;;;;;;7624309;19;20014;-74
2024/02/28 07:53:40;;;;;;;90.75;42.03;;;6.30;99.90;;;;;;7619996;19;20474;-75
2024/02/28 07:56:17;;;;;;;86.73;39.13;;;6.40;99.90;;;;;;7628823;19;20014;-77
2024/02/28 07:58:50;;;;;;;91.82;41.70;;;6.40;99.90;;;;;;7628634;19;20099;-72
2024/02/28 08:01:22;;;;;;;94.45;41.15;;;6.50;99.90;;;;;;7630196;19;20010;-75
2024/02/28 08:03:55;;;;;;;83.70;38.40;;;6.50;99.90;;;;;;7623735;19;20038;-74
2024/02/28 08:06:28;;;;;;;91.05;41.72;;;6.50;99.90;;;;;;7631293;19;20800;-72
2024/02/28 08:09:00;;;;;;;89.18;41.72;;;6.50;99.90;;;;;;7625868;19;20014;-72
2024/02/28 08:11:33;;;;;;;92.22;41.10;;;6.50;99.90;;;;;;7631177;19;20025;-74
2024/02/28 08:14:05;;;;;;;87.50;40.28;;;6.50;99.90;;;;;;7626994;19;20027;-74
2024/02/28 08:16:37;;;;;;;88.60;39.55;;;6.50;99.90;;;;;;7623925;19;20014;-75
2024/02/28 08:19:10;;;;;;;91.60;41.65;;;6.50;99.90;;;;;;7628367;19;20019;-72
2024/02/28 08:21:42;;;;;;;90.13;40.33;;;6.40;99.90;;;;;;7627287;19;20603;-72
2024/02/28 08:24:16;;;;;;;92.53;40.60;;;6.40;99.90;;;;;;7627763;19;20025;-74
2024/02/28 08:26:49;;;;;;;91.20;41.15;;;6.40;99.90;;;;;;7628222;19;20018;-75
2024/02/28 08:29:21;;;;;;;90.18;39.95;;;6.50;99.90;;;;;;7626819;19;20014;-72
2024/02/28 08:31:54;;;;;;;87.68;39.67;;;6.50;99.90;;;;;;7627967;19;20545;-72
2024/02/28 08:34:26;;;;;;;96.50;41.05;;;6.40;99.90;;;;;;7625229;19;20023;-72
2024/02/28 08:36:58;;;;;;;86.10;40.78;;;6.50;99.90;;;;;;7623029;19;20027;-72
2024/02/28 08:39:31;;;;;;;89.95;39.10;;;6.50;99.90;;;;;;7624863;19;20029;-72
2024/02/28 08:42:03;;;;;;;82.72;38.00;;;6.50;99.90;;;;;;7622851;19;20021;-72
2024/02/28 08:44:37;;;;;;;94.05;41.80;;;6.50;99.90;;;;;;7628760;19;20046;-72
2024/02/28 08:47:11;;;;;;;;;;;6.60;99.90;;;;;;7626068;19;20017;-72
2024/02/28 08:49:44;;;;;;;90.05;39.00;;;6.60;99.90;;;;;;7630851;19;19929;-72
2024/02/28 08:52:16;;;;;;;84.20;39.08;;;6.60;99.90;;;;;;7624220;19;20026;-74
2024/02/28 08:54:49;;;;;;;88.05;39.28;;;6.60;99.90;;;;;;7627092;19;20613;-73
2024/02/28 08:57:23;;;;;;;91.40;39.67;;;6.60;99.90;;;;;;7627367;19;20018;-72
2024/02/28 08:59:56;;;;;;;90.57;40.88;;;6.70;99.90;;;;;;7626703;19;20271;-73
2024/02/28 09:02:28;;;;;;;83.70;39.67;;;6.70;99.90;;;;;;7596701;19;20026;-73
2024/02/28 09:05:00;;;;;;;91.55;38.70;;;6.70;99.90;;;;;;7596153;19;20556;-73
2024/02/28 09:07:35;;;;;;;90.18;40.17;;;6.80;99.90;;;;;;7603661;19;20029;-73
2024/02/28 09:10:08;;;;;;;84.15;38.00;;;6.80;99.90;;;;;;7608564;19;20022;-74
2024/02/28 09:12:40;;;;;;;88.03;40.60;;;6.80;99.90;;;;;;7609539;19;20518;-74
2024/02/28 09:15:13;;;;;;;92.68;40.35;;;6.80;99.90;;;;;;7611371;19;20101;-74
2024/02/28 09:17:45;;;;;;;90.30;40.30;;;6.80;99.90;;;;;;7596419;19;20022;-74
2024/02/28 09:20:18;;;;;;;93.22;39.97;;;6.80;99.90;;;;;;7586128;19;20029;-75
2024/02/28 09:22:50;;;;;;;90.40;41.25;;;6.90;99.90;;;;;;7602500;19;20429;-75
2024/02/28 09:25:23;;;;;;;95.40;42.35;;;6.90;99.90;;;;;;7609005;19;20022;-74
2024/02/28 09:28:00;;;;;;;91.00;40.28;;;6.90;99.90;;;;;;7602329;19;20048;-74
2024/02/28 09:30:32;;;;;;;89.95;40.10;;;7.00;99.90;;;;;;7597749;19;20060;-74
2024/02/28 09:33:19;;;;;;;;;;;7.10;99.90;;;;;;7612685;19;20418;-72
2024/02/28 09:35:52;;;;;;;92.40;39.90;;;7.10;99.90;;;;;;7607711;19;19941;-74
2024/02/28 09:38:24;;;;;;;92.70;40.33;;;7.00;99.90;;;;;;7605501;19;20014;-75
2024/02/28 09:40:57;;;;;;;87.20;38.92;;;7.00;99.90;;;;;;7596162;19;20037;-74
2024/02/28 09:43:31;;;;;;;90.80;40.00;;;7.00;99.90;;;;;;7611739;19;20024;-73
2024/02/28 09:46:05;;;;;;;91.90;42.53;;;7.00;99.90;;;;;;7605708;19;20026;-73
2024/02/28 09:48:41;;;;;;;93.65;41.58;;;7.00;99.90;;;;;;7612443;19;20102;-72
2024/02/28 09:51:14;;;;;;;87.82;40.78;;;7.10;99.90;;;;;;7614692;19;20025;-74
2024/02/28 09:53:47;;;;;;;87.97;41.35;;;7.10;99.90;;;;;;7606541;19;20052;-74
2024/02/28 09:56:21;;;;;;;99.13;42.58;;;7.10;99.90;;;;;;7610089;19;20022;-73
2024/02/28 09:58:54;;;;;;;101.88;42.22;;;7.00;99.90;;;;;;7607633;19;20015;-73
2024/02/28 10:01:27;;;;;;;97.65;42.22;;;7.00;99.90;;;;;;7611230;19;20350;-74
2024/02/28 10:04:01;;;;;;;91.35;41.90;;;7.00;99.90;;;;;;7603026;19;20113;-73
2024/02/28 10:06:34;;;;;;;93.53;41.85;;;6.80;99.90;;;;;;7601486;19;20096;-74
2024/02/28 10:09:07;;;;;;;100.90;40.50;;;6.90;99.90;;;;;;7578755;19;20017;-74
2024/02/28 10:11:43;;;;;;;95.93;43.17;;;6.90;99.90;;;;;;7575870;19;20046;-74
2024/02/28 10:14:19;;;;;;;88.90;41.70;;;6.90;99.90;;;;;;7589589;19;20018;-74
2024/02/28 10:16:52;;;;;;;91.70;43.47;;;6.90;99.90;;;;;;7584636;19;20018;-75
2024/02/28 10:19:24;;;;;;;94.38;44.50;;;7.00;99.90;;;;;;7587764;19;20022;-74
2024/02/28 10:21:56;;;;;;;93.68;42.25;;;7.00;99.90;;;;;;7570742;19;20029;-74
2024/02/28 10:24:29;;;;;;;92.65;42.17;;;7.00;99.90;;;;;;7580962;19;20042;-74
2024/02/28 10:27:01;;;;;;;100.50;43.35;;;7.00;99.90;;;;;;7588044;19;20015;-73
2024/02/28 10:29:34;;;;;;;100.03;43.33;;;7.00;99.90;;;;;;7577748;19;20335;-73
2024/02/28 10:32:06;;;;;;;97.00;43.72;;;7.10;99.90;;;;;;7582516;19;20062;-74
2024/02/28 10:34:40;;;;;;;95.53;42.90;;;7.00;99.90;;;;;;7605012;19;20026;-73
2024/02/28 10:37:13;;;;;;;87.85;43.08;;;7.10;99.90;;;;;;7586910;19;20056;-73
2024/02/28 10:39:46;;;;;;;100.85;45.85;;;7.30;99.90;;;;;;7575339;19;20019;-74
2024/02/28 10:42:23;;;;;;;94.30;43.65;;;7.30;99.90;;;;;;7577628;19;20014;-74
2024/02/28 10:44:58;;;;;;;96.43;46.88;;;7.40;99.90;;;;;;7578432;19;20035;-73
2024/02/28 10:47:50;;;;;;;92.43;42.15;;;7.50;99.90;;;;;;7575568;19;20014;-73
2024/02/28 10:50:23;;;;;;;98.07;44.47;;;7.50;99.90;;;;;;7570867;19;20018;-74
2024/02/28 10:53:02;;;;;;;96.45;45.22;;;7.50;99.90;;;;;;7572818;19;20019;-73
2024/02/28 10:55:40;;;;;;;91.72;42.85;;;7.60;99.90;;;;;;7605269;19;20023;-73
2024/02/28 10:58:15;;;;;;;90.22;42.25;;;7.60;99.90;;;;;;7555243;19;20019;-72
2024/02/28 11:00:51;;;;;;;98.47;45.63;;;7.60;99.90;;;;;;7573484;19;20024;-75
2024/02/28 11:03:24;;;;;;;93.55;44.15;;;7.60;99.90;;;;;;7593685;19;20019;-74
2024/02/28 11:05:57;;;;;;;87.88;42.28;;;7.70;99.90;;;;;;7582994;19;20024;-75
2024/02/28 11:08:35;;;;;;;91.13;42.45;;;7.70;99.90;;;;;;7593045;19;20688;-74
2024/02/28 11:11:10;;;;;;;83.10;39.05;;;7.70;99.90;;;;;;7592298;19;20629;-74
2024/02/28 11:13:55;;;;;;;95.30;41.40;;;7.70;99.90;;;;;;7602353;19;20010;-73
2024/02/28 11:16:28;;;;;;;90.45;40.90;;;7.70;99.90;;;;;;7546808;19;20026;-75
2024/02/28 11:19:03;;;;;;;87.75;39.90;;;7.70;99.90;;;;;;7572152;19;20617;-72
2024/02/28 11:21:39;;;;;;;88.68;39.65;;;7.70;99.90;;;;;;7589842;19;20019;-74
2024/02/28 11:24:13;;;;;;;81.20;38.05;;;7.60;99.90;;;;;;7583888;19;20054;-75
2024/02/28 11:26:45;;;;;;;84.95;38.67;;;7.60;99.90;;;;;;7600533;19;20010;-74
2024/02/28 11:29:30;;;;;;;81.15;38.65;;;7.60;99.90;;;;;;7587607;19;20476;-74
2024/02/28 11:32:04;;;;;;;87.75;38.20;;;7.60;99.90;;;;;;7572934;19;20068;-74
2024/02/28 11:34:36;;;;;;;81.85;40.38;;;7.60;99.90;;;;;;7575180;19;20376;-74
2024/02/28 11:37:09;;;;;;;77.88;37.92;;;7.60;99.90;;;;;;7591968;19;20018;-73
2024/02/28 11:39:47;;;;;;;78.65;39.92;;;7.50;99.90;;;;;;7566972;19;20015;-72
2024/02/28 11:42:19;;;;;;;76.65;36.03;;;7.50;99.90;;;;;;7591325;19;20014;-75
2024/02/28 11:44:55;;;;;;;79.03;38.92;;;7.50;99.90;;;;;;7568124;19;20007;-75
2024/02/28 11:47:33;;;;;;;75.22;37.10;;;7.50;99.90;;;;;;7588709;19;20049;-74
2024/02/28 11:50:06;;;;;;;73.75;37.00;;;7.50;99.90;;;;;;7585807;19;20090;-72
2024/02/28 11:52:41;;;;;;;71.28;36.13;;;7.50;99.90;;;;;;7590233;19;20547;-75
2024/02/28 11:55:13;;;;;;;77.20;36.20;;;7.60;99.90;;;;;;7572361;19;20853;-72
2024/02/28 11:57:46;;;;;;;77.40;37.55;;;7.60;99.90;;;;;;7558514;19;20011;-73
2024/02/28 12:00:19;;;;;;;76.93;36.63;;;7.60;99.90;;;;;;7580613;19;20015;-74
2024/02/28 12:02:52;;;;;;;77.22;35.78;;;7.60;99.90;;;;;;7590616;19;20019;-75
2024/02/28 12:05:24;;;;;;;74.45;35.42;;;7.70;99.90;;;;;;7558394;19;20014;-73
2024/02/28 12:07:58;;;;;;;76.05;37.03;;;7.70;99.90;;;;;;7567168;19;20641;-72
2024/02/28 12:10:31;;;;;;;80.13;37.35;;;7.70;99.90;;;;;;7559177;19;20007;-73
2024/02/28 12:13:04;;;;;;;;;;;7.70;99.90;;;;;;7540421;19;20021;-73
2024/02/28 12:15:41;;;;;;;78.22;36.75;;;7.70;99.90;;;;;;7581152;19;19938;-73
2024/02/28 12:18:15;;;;;;;83.53;38.92;;;7.70;99.90;;;;;;7557491;19;20046;-73
2024/02/28 12:20:49;;;;;;;75.88;36.92;;;7.60;99.90;;;;;;7568666;19;20120;-73
2024/02/28 12:23:22;;;;;;;80.82;39.38;;;7.60;99.90;;;;;;7571292;19;20037;-73
2024/02/28 12:25:54;;;;;;;73.13;38.00;;;7.60;99.90;;;;;;7582849;19;20018;-73
2024/02/28 12:28:28;;;;;;;77.10;39.00;;;7.60;99.90;;;;;;7584509;19;20018;-73
2024/02/28 12:31:01;;;;;;;79.43;39.65;;;7.60;99.90;;;;;;7559113;19;20055;-73
2024/02/28 12:33:33;;;;;;;84.47;40.13;;;7.50;99.90;;;;;;7548870;19;20039;-75
2024/02/28 12:36:06;;;;;;;81.60;40.78;;;7.50;99.90;;;;;;7561270;19;20015;-74
2024/02/28 12:38:40;;;;;;;82.18;41.13;;;7.50;99.90;;;;;;7560585;19;20018;-74
2024/02/28 12:41:13;;;;;;;89.15;41.85;;;7.50;99.90;;;;;;7551188;19;20848;-74
2024/02/28 12:43:45;;;;;;;80.50;41.63;;;7.50;99.90;;;;;;7558053;19;20018;-74
2024/02/28 12:46:18;;;;;;;88.43;41.70;;;7.40;99.90;;;;;;7566914;19;20780;-74
2024/02/28 12:48:50;;;;;;;80.03;38.95;;;7.40;99.90;;;;;;7543725;19;20690;-74
2024/02/28 12:51:45;;;;;;;81.05;39.70;;;7.30;99.90;;;;;;7565974;19;20014;-74
2024/02/28 12:54:20;;;;;;;85.75;39.90;;;7.30;99.90;;;;;;7574284;19;20021;-74
2024/02/28 12:56:53;;;;;;;89.65;41.97;;;7.30;99.90;;;;;;7591283;19;20018;-73
2024/02/28 12:59:25;;;;;;;77.68;38.58;;;7.30;99.90;;;;;;7570110;19;20015;-74
2024/02/28 13:01:58;;;;;;;84.65;39.25;;;7.30;99.90;;;;;;7550229;19;20010;-75
2024/02/28 13:04:30;;;;;;;88.85;39.33;;;7.30;99.90;;;;;;7570891;19;20081;-75
2024/02/28 13:07:02;;;;;;;78.72;39.45;;;7.30;99.90;;;;;;7572207;19;20424;-75
2024/02/28 13:09:35;;;;;;;79.55;39.70;;;7.30;99.90;;;;;;7583997;19;20018;-74